sensor_id;sensor_type;location;lat;lon;timestamp;temperature;humidity
66119;DHT22;52912;48.564;9.302;2023-06-01T00:02:24;15.70;71.75
66119;DHT22;52912;48.564;9.302;2023-06-01T00:04:49;15.55;72.15
66119;DHT22;52912;48.564;9.302;2023-06-01T00:07:15;15.44;72.62
66119;DHT22;52912;48.564;9.302;2023-06-01T00:09:41;15.37;72.68
66119;DHT22;52912;48.564;9.302;2023-06-01T00:12:07;15.58;72.10
66119;DHT22;52912;48.564;9.302;2023-06-01T00:14:33;15.67;72.62
66119;DHT22;52912;48.564;9.302;2023-06-01T00:17:00;15.37;73.16
66119;DHT22;52912;48.564;9.302;2023-06-01T00:19:26;15.32;73.63
66119;DHT22;52912;48.564;9.302;2023-06-01T00:21:52;15.27;73.44
66119;DHT22;52912;48.564;9.302;2023-06-01T00:24:17;15.32;73.65
66119;DHT22;52912;48.564;9.302;2023-06-01T00:26:42;15.33;73.71
66119;DHT22;52912;48.564;9.302;2023-06-01T00:29:08;15.40;73.39
66119;DHT22;52912;48.564;9.302;2023-06-01T00:31:33;15.30;73.56
66119;DHT22;52912;48.564;9.302;2023-06-01T00:34:00;15.02;74.63
66119;DHT22;52912;48.564;9.302;2023-06-01T00:36:26;15.05;74.44
66119;DHT22;52912;48.564;9.302;2023-06-01T00:38:51;14.96;74.43
66119;DHT22;52912;48.564;9.302;2023-06-01T00:41:17;14.96;74.49
66119;DHT22;52912;48.564;9.302;2023-06-01T00:43:42;14.84;74.61
66119;DHT22;52912;48.564;9.302;2023-06-01T00:46:08;14.96;74.38
66119;DHT22;52912;48.564;9.302;2023-06-01T00:48:34;14.93;74.25
66119;DHT22;52912;48.564;9.302;2023-06-01T00:51:01;14.92;74.32
66119;DHT22;52912;48.564;9.302;2023-06-01T00:53:27;14.74;75.09
66119;DHT22;52912;48.564;9.302;2023-06-01T00:55:52;14.78;74.73
66119;DHT22;52912;48.564;9.302;2023-06-01T00:58:18;14.80;74.38
66119;DHT22;52912;48.564;9.302;2023-06-01T01:00:43;14.99;74.21
66119;DHT22;52912;48.564;9.302;2023-06-01T01:03:09;14.74;75.28
66119;DHT22;52912;48.564;9.302;2023-06-01T01:05:35;14.72;75.35
66119;DHT22;52912;48.564;9.302;2023-06-01T01:08:07;14.64;75.05
66119;DHT22;52912;48.564;9.302;2023-06-01T01:10:38;14.59;75.17
66119;DHT22;52912;48.564;9.302;2023-06-01T01:13:08;14.44;76.05
66119;DHT22;52912;48.564;9.302;2023-06-01T01:15:43;14.48;76.13
66119;DHT22;52912;48.564;9.302;2023-06-01T01:18:13;14.29;76.88
66119;DHT22;52912;48.564;9.302;2023-06-01T01:20:41;14.29;76.79
66119;DHT22;52912;48.564;9.302;2023-06-01T01:23:16;14.33;76.64
66119;DHT22;52912;48.564;9.302;2023-06-01T01:28:51;14.29;76.53
66119;DHT22;52912;48.564;9.302;2023-06-01T01:31:21;14.27;76.77
66119;DHT22;52912;48.564;9.302;2023-06-01T01:33:47;14.26;76.64
66119;DHT22;52912;48.564;9.302;2023-06-01T01:36:15;14.20;77.00
66119;DHT22;52912;48.564;9.302;2023-06-01T01:38:41;14.20;76.83
66119;DHT22;52912;48.564;9.302;2023-06-01T01:41:06;14.27;76.59
66119;DHT22;52912;48.564;9.302;2023-06-01T01:43:32;14.18;77.22
66119;DHT22;52912;48.564;9.302;2023-06-01T01:46:04;14.19;77.02
66119;DHT22;52912;48.564;9.302;2023-06-01T01:48:36;14.02;77.26
66119;DHT22;52912;48.564;9.302;2023-06-01T01:51:06;14.12;77.03
66119;DHT22;52912;48.564;9.302;2023-06-01T01:53:33;13.99;77.67
66119;DHT22;52912;48.564;9.302;2023-06-01T01:55:59;13.85;77.99
66119;DHT22;52912;48.564;9.302;2023-06-01T01:58:26;13.61;78.28
66119;DHT22;52912;48.564;9.302;2023-06-01T02:00:53;13.85;77.80
66119;DHT22;52912;48.564;9.302;2023-06-01T02:03:20;13.97;77.19
66119;DHT22;52912;48.564;9.302;2023-06-01T02:05:45;13.84;78.10
66119;DHT22;52912;48.564;9.302;2023-06-01T02:08:11;13.73;78.89
66119;DHT22;52912;48.564;9.302;2023-06-01T02:10:36;13.47;79.88
66119;DHT22;52912;48.564;9.302;2023-06-01T02:13:02;13.48;79.71
66119;DHT22;52912;48.564;9.302;2023-06-01T02:15:27;13.54;79.73
66119;DHT22;52912;48.564;9.302;2023-06-01T02:17:53;13.64;79.15
66119;DHT22;52912;48.564;9.302;2023-06-01T02:20:20;13.77;78.51
66119;DHT22;52912;48.564;9.302;2023-06-01T02:22:45;13.56;79.54
66119;DHT22;52912;48.564;9.302;2023-06-01T02:25:11;13.65;79.40
66119;DHT22;52912;48.564;9.302;2023-06-01T02:27:36;13.36;80.08
66119;DHT22;52912;48.564;9.302;2023-06-01T02:30:02;13.46;79.84
66119;DHT22;52912;48.564;9.302;2023-06-01T02:32:28;13.46;79.80
66119;DHT22;52912;48.564;9.302;2023-06-01T02:34:53;13.42;79.80
66119;DHT22;52912;48.564;9.302;2023-06-01T02:37:20;13.27;80.22
66119;DHT22;52912;48.564;9.302;2023-06-01T02:39:46;13.24;80.50
66119;DHT22;52912;48.564;9.302;2023-06-01T02:42:11;13.23;80.25
66119;DHT22;52912;48.564;9.302;2023-06-01T02:44:37;13.35;80.08
66119;DHT22;52912;48.564;9.302;2023-06-01T02:47:02;13.43;79.83
66119;DHT22;52912;48.564;9.302;2023-06-01T02:49:28;13.30;79.86
66119;DHT22;52912;48.564;9.302;2023-06-01T02:51:53;13.24;80.03
66119;DHT22;52912;48.564;9.302;2023-06-01T02:54:20;13.23;80.20
66119;DHT22;52912;48.564;9.302;2023-06-01T02:56:45;13.20;80.81
66119;DHT22;52912;48.564;9.302;2023-06-01T02:59:11;13.11;80.95
66119;DHT22;52912;48.564;9.302;2023-06-01T03:01:36;13.08;81.11
66119;DHT22;52912;48.564;9.302;2023-06-01T03:04:02;13.11;81.08
66119;DHT22;52912;48.564;9.302;2023-06-01T03:06:27;13.16;80.85
66119;DHT22;52912;48.564;9.302;2023-06-01T03:08:53;13.16;81.18
66119;DHT22;52912;48.564;9.302;2023-06-01T03:11:20;13.08;81.08
66119;DHT22;52912;48.564;9.302;2023-06-01T03:13:45;13.05;81.17
66119;DHT22;52912;48.564;9.302;2023-06-01T03:16:11;12.92;81.68
66119;DHT22;52912;48.564;9.302;2023-06-01T03:18:36;12.95;81.32
66119;DHT22;52912;48.564;9.302;2023-06-01T03:21:02;12.98;80.70
66119;DHT22;52912;48.564;9.302;2023-06-01T03:23:27;13.03;80.82
66119;DHT22;52912;48.564;9.302;2023-06-01T03:25:53;12.96;80.72
66119;DHT22;52912;48.564;9.302;2023-06-01T03:28:19;12.87;81.05
66119;DHT22;52912;48.564;9.302;2023-06-01T03:30:45;12.75;81.41
66119;DHT22;52912;48.564;9.302;2023-06-01T03:33:10;12.67;81.93
66119;DHT22;52912;48.564;9.302;2023-06-01T03:35:36;12.68;81.57
66119;DHT22;52912;48.564;9.302;2023-06-01T03:38:01;12.81;81.37
66119;DHT22;52912;48.564;9.302;2023-06-01T03:40:27;12.88;81.14
66119;DHT22;52912;48.564;9.302;2023-06-01T03:42:52;12.92;81.06
66119;DHT22;52912;48.564;9.302;2023-06-01T03:45:19;12.78;81.60
66119;DHT22;52912;48.564;9.302;2023-06-01T03:47:44;12.75;81.88
66119;DHT22;52912;48.564;9.302;2023-06-01T03:50:10;12.74;82.20
66119;DHT22;52912;48.564;9.302;2023-06-01T03:52:37;12.73;82.16
66119;DHT22;52912;48.564;9.302;2023-06-01T03:55:04;12.89;81.32
66119;DHT22;52912;48.564;9.302;2023-06-01T03:57:30;12.87;81.67
66119;DHT22;52912;48.564;9.302;2023-06-01T03:59:55;12.85;81.80
66119;DHT22;52912;48.564;9.302;2023-06-01T04:02:22;12.80;81.63
66119;DHT22;52912;48.564;9.302;2023-06-01T04:04:48;12.54;82.82
66119;DHT22;52912;48.564;9.302;2023-06-01T04:07:14;12.60;82.53
66119;DHT22;52912;48.564;9.302;2023-06-01T04:09:40;12.61;82.75
66119;DHT22;52912;48.564;9.302;2023-06-01T04:12:05;12.61;82.96
66119;DHT22;52912;48.564;9.302;2023-06-01T04:14:31;12.73;82.59
66119;DHT22;52912;48.564;9.302;2023-06-01T04:16:56;12.77;82.64
66119;DHT22;52912;48.564;9.302;2023-06-01T04:19:23;12.78;82.48
66119;DHT22;52912;48.564;9.302;2023-06-01T04:21:49;12.91;82.26
66119;DHT22;52912;48.564;9.302;2023-06-01T04:24:14;12.96;82.03
66119;DHT22;52912;48.564;9.302;2023-06-01T04:26:40;13.01;82.03
66119;DHT22;52912;48.564;9.302;2023-06-01T04:29:05;12.95;82.34
66119;DHT22;52912;48.564;9.302;2023-06-01T04:31:31;12.94;82.42
66119;DHT22;52912;48.564;9.302;2023-06-01T04:33:56;12.99;82.16
66119;DHT22;52912;48.564;9.302;2023-06-01T04:36:23;13.02;82.20
66119;DHT22;52912;48.564;9.302;2023-06-01T04:38:49;13.03;82.37
66119;DHT22;52912;48.564;9.302;2023-06-01T04:41:15;13.19;82.23
66119;DHT22;52912;48.564;9.302;2023-06-01T04:43:40;13.27;82.25
66119;DHT22;52912;48.564;9.302;2023-06-01T04:46:05;13.26;81.97
66119;DHT22;52912;48.564;9.302;2023-06-01T04:48:31;13.18;81.28
66119;DHT22;52912;48.564;9.302;2023-06-01T04:50:57;13.22;81.09
66119;DHT22;52912;48.564;9.302;2023-06-01T04:53:23;13.27;80.90
66119;DHT22;52912;48.564;9.302;2023-06-01T04:55:49;13.40;80.63
66119;DHT22;52912;48.564;9.302;2023-06-01T04:58:15;13.47;80.75
66119;DHT22;52912;48.564;9.302;2023-06-01T05:00:40;13.56;80.72
66119;DHT22;52912;48.564;9.302;2023-06-01T05:03:06;13.57;80.91
66119;DHT22;52912;48.564;9.302;2023-06-01T05:05:31;13.67;80.45
66119;DHT22;52912;48.564;9.302;2023-06-01T05:07:57;13.70;80.22
66119;DHT22;52912;48.564;9.302;2023-06-01T05:10:24;13.63;80.28
66119;DHT22;52912;48.564;9.302;2023-06-01T05:12:49;13.75;80.13
66119;DHT22;52912;48.564;9.302;2023-06-01T05:15:15;13.88;80.06
66119;DHT22;52912;48.564;9.302;2023-06-01T05:17:40;13.97;80.06
66119;DHT22;52912;48.564;9.302;2023-06-01T05:20:07;14.06;79.73
66119;DHT22;52912;48.564;9.302;2023-06-01T05:22:32;14.25;78.92
66119;DHT22;52912;48.564;9.302;2023-06-01T05:24:58;14.33;78.35
66119;DHT22;52912;48.564;9.302;2023-06-01T05:27:25;14.53;77.98
66119;DHT22;52912;48.564;9.302;2023-06-01T05:29:50;14.50;78.23
66119;DHT22;52912;48.564;9.302;2023-06-01T05:32:16;14.61;77.79
66119;DHT22;52912;48.564;9.302;2023-06-01T05:34:41;14.67;77.19
66119;DHT22;52912;48.564;9.302;2023-06-01T05:37:07;14.71;76.64
66119;DHT22;52912;48.564;9.302;2023-06-01T05:39:32;14.82;76.32
66119;DHT22;52912;48.564;9.302;2023-06-01T05:41:58;14.99;75.81
66119;DHT22;52912;48.564;9.302;2023-06-01T05:44:25;14.99;75.91
66119;DHT22;52912;48.564;9.302;2023-06-01T05:46:50;15.12;75.66
66119;DHT22;52912;48.564;9.302;2023-06-01T05:49:15;15.15;75.59
66119;DHT22;52912;48.564;9.302;2023-06-01T05:51:41;15.27;75.68
66119;DHT22;52912;48.564;9.302;2023-06-01T05:54:06;15.39;75.58
66119;DHT22;52912;48.564;9.302;2023-06-01T05:56:32;15.42;75.36
66119;DHT22;52912;48.564;9.302;2023-06-01T05:58:58;15.54;75.54
66119;DHT22;52912;48.564;9.302;2023-06-01T06:01:25;15.64;75.34
66119;DHT22;52912;48.564;9.302;2023-06-01T06:03:50;15.77;74.83
66119;DHT22;52912;48.564;9.302;2023-06-01T06:06:16;15.89;73.98
66119;DHT22;52912;48.564;9.302;2023-06-01T06:08:41;16.05;74.07
66119;DHT22;52912;48.564;9.302;2023-06-01T06:11:07;16.09;73.93
66119;DHT22;52912;48.564;9.302;2023-06-01T06:13:32;16.30;73.59
66119;DHT22;52912;48.564;9.302;2023-06-01T06:15:58;16.37;74.60
66119;DHT22;52912;48.564;9.302;2023-06-01T06:18:25;16.58;74.13
66119;DHT22;52912;48.564;9.302;2023-06-01T06:20:50;16.57;73.81
66119;DHT22;52912;48.564;9.302;2023-06-01T06:23:16;16.81;72.13
66119;DHT22;52912;48.564;9.302;2023-06-01T06:25:41;16.88;71.47
66119;DHT22;52912;48.564;9.302;2023-06-01T06:28:07;16.94;70.99
66119;DHT22;52912;48.564;9.302;2023-06-01T06:30:32;16.78;72.13
66119;DHT22;52912;48.564;9.302;2023-06-01T06:32:58;16.78;71.84
66119;DHT22;52912;48.564;9.302;2023-06-01T06:35:24;16.86;72.78
66119;DHT22;52912;48.564;9.302;2023-06-01T06:37:50;16.89;72.36
66119;DHT22;52912;48.564;9.302;2023-06-01T06:40:15;17.01;72.25
66119;DHT22;52912;48.564;9.302;2023-06-01T06:42:42;17.23;70.64
66119;DHT22;52912;48.564;9.302;2023-06-01T06:45:08;17.23;71.20
66119;DHT22;52912;48.564;9.302;2023-06-01T06:47:34;17.33;70.02
66119;DHT22;52912;48.564;9.302;2023-06-01T06:49:59;17.31;69.92
66119;DHT22;52912;48.564;9.302;2023-06-01T06:52:26;17.34;70.26
66119;DHT22;52912;48.564;9.302;2023-06-01T06:54:52;17.55;69.72
66119;DHT22;52912;48.564;9.302;2023-06-01T06:57:17;17.58;69.75
66119;DHT22;52912;48.564;9.302;2023-06-01T06:59:43;17.75;69.21
66119;DHT22;52912;48.564;9.302;2023-06-01T07:02:08;17.79;68.69
66119;DHT22;52912;48.564;9.302;2023-06-01T07:04:33;17.79;69.27
66119;DHT22;52912;48.564;9.302;2023-06-01T07:06:59;18.02;68.21
66119;DHT22;52912;48.564;9.302;2023-06-01T07:09:26;18.12;68.62
66119;DHT22;52912;48.564;9.302;2023-06-01T07:11:51;18.34;69.38
66119;DHT22;52912;48.564;9.302;2023-06-01T07:14:17;18.56;66.89
66119;DHT22;52912;48.564;9.302;2023-06-01T07:16:42;18.57;66.31
66119;DHT22;52912;48.564;9.302;2023-06-01T07:19:08;18.72;65.08
66119;DHT22;52912;48.564;9.302;2023-06-01T07:21:34;18.75;65.15
66119;DHT22;52912;48.564;9.302;2023-06-01T07:23:59;18.88;65.46
66119;DHT22;52912;48.564;9.302;2023-06-01T07:26:26;18.72;65.76
66119;DHT22;52912;48.564;9.302;2023-06-01T07:28:52;19.08;65.12
66119;DHT22;52912;48.564;9.302;2023-06-01T07:31:17;19.30;65.15
66119;DHT22;52912;48.564;9.302;2023-06-01T07:33:42;19.24;65.63
66119;DHT22;52912;48.564;9.302;2023-06-01T07:36:08;19.55;65.42
66119;DHT22;52912;48.564;9.302;2023-06-01T07:38:33;19.70;64.59
66119;DHT22;52912;48.564;9.302;2023-06-01T07:40:59;19.64;65.58
66119;DHT22;52912;48.564;9.302;2023-06-01T07:43:26;19.92;65.62
66119;DHT22;52912;48.564;9.302;2023-06-01T07:45:51;20.13;64.57
66119;DHT22;52912;48.564;9.302;2023-06-01T07:48:17;20.08;64.21
66119;DHT22;52912;48.564;9.302;2023-06-01T07:50:42;19.88;64.23
66119;DHT22;52912;48.564;9.302;2023-06-01T07:53:08;20.13;64.14
66119;DHT22;52912;48.564;9.302;2023-06-01T07:55:33;20.74;62.49
66119;DHT22;52912;48.564;9.302;2023-06-01T07:57:59;20.79;61.57
66119;DHT22;52912;48.564;9.302;2023-06-01T08:00:26;20.92;61.77
66119;DHT22;52912;48.564;9.302;2023-06-01T08:02:51;20.50;62.43
66119;DHT22;52912;48.564;9.302;2023-06-01T08:05:17;20.77;62.30
66119;DHT22;52912;48.564;9.302;2023-06-01T08:07:42;21.39;62.99
66119;DHT22;52912;48.564;9.302;2023-06-01T08:10:08;21.75;60.33
66119;DHT22;52912;48.564;9.302;2023-06-01T08:12:34;21.89;59.42
66119;DHT22;52912;48.564;9.302;2023-06-01T08:14:59;22.17;58.67
66119;DHT22;52912;48.564;9.302;2023-06-01T08:17:26;21.86;58.99
66119;DHT22;52912;48.564;9.302;2023-06-01T08:19:52;22.47;58.73
66119;DHT22;52912;48.564;9.302;2023-06-01T08:22:17;22.71;56.42
66119;DHT22;52912;48.564;9.302;2023-06-01T08:24:43;22.36;57.55
66119;DHT22;52912;48.564;9.302;2023-06-01T08:27:17;22.43;57.37
66119;DHT22;52912;48.564;9.302;2023-06-01T08:29:45;22.41;57.34
66119;DHT22;52912;48.564;9.302;2023-06-01T08:32:11;22.65;57.16
66119;DHT22;52912;48.564;9.302;2023-06-01T08:34:38;22.74;56.13
66119;DHT22;52912;48.564;9.302;2023-06-01T08:37:04;22.84;57.23
66119;DHT22;52912;48.564;9.302;2023-06-01T08:39:30;22.85;56.40
66119;DHT22;52912;48.564;9.302;2023-06-01T08:42:05;23.27;56.29
66119;DHT22;52912;48.564;9.302;2023-06-01T08:44:35;23.26;56.30
66119;DHT22;52912;48.564;9.302;2023-06-01T08:47:02;23.42;54.91
66119;DHT22;52912;48.564;9.302;2023-06-01T08:49:29;23.85;53.69
66119;DHT22;52912;48.564;9.302;2023-06-01T08:51:59;23.27;56.37
66119;DHT22;52912;48.564;9.302;2023-06-01T08:54:25;23.94;54.13
66119;DHT22;52912;48.564;9.302;2023-06-01T08:56:51;23.78;55.00
66119;DHT22;52912;48.564;9.302;2023-06-01T08:59:16;24.19;55.36
66119;DHT22;52912;48.564;9.302;2023-06-01T09:01:42;24.32;54.90
66119;DHT22;52912;48.564;9.302;2023-06-01T09:04:08;24.68;53.14
66119;DHT22;52912;48.564;9.302;2023-06-01T09:06:33;24.88;53.34
66119;DHT22;52912;48.564;9.302;2023-06-01T09:09:00;25.23;52.61
66119;DHT22;52912;48.564;9.302;2023-06-01T09:11:26;25.44;52.69
66119;DHT22;52912;48.564;9.302;2023-06-01T09:13:51;25.63;52.06
66119;DHT22;52912;48.564;9.302;2023-06-01T09:16:17;25.06;52.52
66119;DHT22;52912;48.564;9.302;2023-06-01T09:18:52;24.81;52.54
66119;DHT22;52912;48.564;9.302;2023-06-01T09:21:18;25.30;52.01
66119;DHT22;52912;48.564;9.302;2023-06-01T09:23:44;25.59;51.90
66119;DHT22;52912;48.564;9.302;2023-06-01T09:26:12;25.57;51.40
66119;DHT22;52912;48.564;9.302;2023-06-01T09:28:56;25.59;52.18
66119;DHT22;52912;48.564;9.302;2023-06-01T09:31:38;25.44;51.77
66119;DHT22;52912;48.564;9.302;2023-06-01T09:34:04;25.43;51.66
66119;DHT22;52912;48.564;9.302;2023-06-01T09:36:30;26.28;51.72
66119;DHT22;52912;48.564;9.302;2023-06-01T09:39:00;26.04;52.47
66119;DHT22;52912;48.564;9.302;2023-06-01T09:41:27;26.09;51.40
66119;DHT22;52912;48.564;9.302;2023-06-01T09:43:52;26.77;50.14
66119;DHT22;52912;48.564;9.302;2023-06-01T09:46:18;26.67;51.25
66119;DHT22;52912;48.564;9.302;2023-06-01T09:48:43;26.95;49.94
66119;DHT22;52912;48.564;9.302;2023-06-01T09:51:20;27.43;49.88
66119;DHT22;52912;48.564;9.302;2023-06-01T09:53:46;27.06;50.64
66119;DHT22;52912;48.564;9.302;2023-06-01T09:56:12;27.02;49.94
66119;DHT22;52912;48.564;9.302;2023-06-01T09:58:39;27.47;49.61
66119;DHT22;52912;48.564;9.302;2023-06-01T10:01:05;27.37;47.88
66119;DHT22;52912;48.564;9.302;2023-06-01T10:03:31;27.36;47.99
66119;DHT22;52912;48.564;9.302;2023-06-01T10:05:58;27.68;48.80
66119;DHT22;52912;48.564;9.302;2023-06-01T10:08:24;26.68;49.35
66119;DHT22;52912;48.564;9.302;2023-06-01T10:10:50;26.90;48.19
66119;DHT22;52912;48.564;9.302;2023-06-01T10:13:16;27.22;47.62
66119;DHT22;52912;48.564;9.302;2023-06-01T10:15:43;26.88;48.86
66119;DHT22;52912;48.564;9.302;2023-06-01T10:18:09;27.11;48.15
66119;DHT22;52912;48.564;9.302;2023-06-01T10:20:36;26.73;48.75
66119;DHT22;52912;48.564;9.302;2023-06-01T10:23:03;27.98;47.80
66119;DHT22;52912;48.564;9.302;2023-06-01T10:25:30;27.87;47.27
66119;DHT22;52912;48.564;9.302;2023-06-01T10:28:02;28.56;46.12
66119;DHT22;52912;48.564;9.302;2023-06-01T10:30:28;28.82;47.03
66119;DHT22;52912;48.564;9.302;2023-06-01T10:32:55;27.80;47.32
66119;DHT22;52912;48.564;9.302;2023-06-01T10:38:25;28.78;46.17
66119;DHT22;52912;48.564;9.302;2023-06-01T10:40:51;29.08;44.73
66119;DHT22;52912;48.564;9.302;2023-06-01T10:43:39;28.95;45.33
66119;DHT22;52912;48.564;9.302;2023-06-01T10:46:35;28.32;46.02
66119;DHT22;52912;48.564;9.302;2023-06-01T10:49:02;29.20;45.02
66119;DHT22;52912;48.564;9.302;2023-06-01T10:51:28;28.75;45.76
66119;DHT22;52912;48.564;9.302;2023-06-01T10:53:53;28.78;45.50
66119;DHT22;52912;48.564;9.302;2023-06-01T10:56:20;29.22;45.44
66119;DHT22;52912;48.564;9.302;2023-06-01T10:58:47;28.95;45.40
66119;DHT22;52912;48.564;9.302;2023-06-01T11:01:18;28.47;45.36
66119;DHT22;52912;48.564;9.302;2023-06-01T11:03:46;28.75;45.48
66119;DHT22;52912;48.564;9.302;2023-06-01T11:06:24;29.40;45.66
66119;DHT22;52912;48.564;9.302;2023-06-01T11:08:51;29.45;45.18
66119;DHT22;52912;48.564;9.302;2023-06-01T11:11:17;29.47;44.89
66119;DHT22;52912;48.564;9.302;2023-06-01T11:13:44;30.15;43.57
66119;DHT22;52912;48.564;9.302;2023-06-01T11:16:28;29.98;43.86
66119;DHT22;52912;48.564;9.302;2023-06-01T11:18:57;30.00;44.04
66119;DHT22;52912;48.564;9.302;2023-06-01T11:21:22;30.06;43.22
66119;DHT22;52912;48.564;9.302;2023-06-01T11:23:48;29.91;43.77
66119;DHT22;52912;48.564;9.302;2023-06-01T11:26:15;29.33;43.58
66119;DHT22;52912;48.564;9.302;2023-06-01T11:28:41;29.29;44.14
66119;DHT22;52912;48.564;9.302;2023-06-01T11:31:09;30.25;42.90
66119;DHT22;52912;48.564;9.302;2023-06-01T11:33:38;30.50;42.32
66119;DHT22;52912;48.564;9.302;2023-06-01T11:36:06;29.81;43.10
66119;DHT22;52912;48.564;9.302;2023-06-01T11:38:33;30.56;41.76
66119;DHT22;52912;48.564;9.302;2023-06-01T11:40:59;29.89;43.42
66119;DHT22;52912;48.564;9.302;2023-06-01T11:43:27;30.66;41.66
66119;DHT22;52912;48.564;9.302;2023-06-01T11:45:59;30.57;42.44
66119;DHT22;52912;48.564;9.302;2023-06-01T11:48:25;31.19;41.17
66119;DHT22;52912;48.564;9.302;2023-06-01T11:50:50;31.39;40.74
66119;DHT22;52912;48.564;9.302;2023-06-01T11:53:17;30.41;41.15
66119;DHT22;52912;48.564;9.302;2023-06-01T11:55:48;30.80;40.73
66119;DHT22;52912;48.564;9.302;2023-06-01T11:58:14;30.08;41.49
66119;DHT22;52912;48.564;9.302;2023-06-01T12:00:44;30.44;41.46
66119;DHT22;52912;48.564;9.302;2023-06-01T12:03:10;31.18;40.95
66119;DHT22;52912;48.564;9.302;2023-06-01T12:05:39;31.39;40.17
66119;DHT22;52912;48.564;9.302;2023-06-01T12:08:04;31.26;40.57
66119;DHT22;52912;48.564;9.302;2023-06-01T12:10:33;31.54;39.17
66119;DHT22;52912;48.564;9.302;2023-06-01T12:12:58;30.29;39.54
66119;DHT22;52912;48.564;9.302;2023-06-01T12:15:24;30.47;39.85
66119;DHT22;52912;48.564;9.302;2023-06-01T12:17:50;30.70;39.69
66119;DHT22;52912;48.564;9.302;2023-06-01T12:20:29;30.37;40.59
66119;DHT22;52912;48.564;9.302;2023-06-01T12:22:54;30.91;38.05
66119;DHT22;52912;48.564;9.302;2023-06-01T12:25:20;31.14;38.29
66119;DHT22;52912;48.564;9.302;2023-06-01T12:28:01;31.84;37.48
66119;DHT22;52912;48.564;9.302;2023-06-01T12:30:26;32.31;38.27
66119;DHT22;52912;48.564;9.302;2023-06-01T12:32:52;32.74;37.02
66119;DHT22;52912;48.564;9.302;2023-06-01T12:35:17;32.63;36.76
66119;DHT22;52912;48.564;9.302;2023-06-01T12:37:43;32.90;36.70
66119;DHT22;52912;48.564;9.302;2023-06-01T12:40:09;32.26;35.93
66119;DHT22;52912;48.564;9.302;2023-06-01T12:42:36;32.70;35.79
66119;DHT22;52912;48.564;9.302;2023-06-01T12:45:03;31.57;36.51
66119;DHT22;52912;48.564;9.302;2023-06-01T12:47:35;31.05;37.01
66119;DHT22;52912;48.564;9.302;2023-06-01T12:50:04;30.77;37.04
66119;DHT22;52912;48.564;9.302;2023-06-01T12:52:30;31.76;36.42
66119;DHT22;52912;48.564;9.302;2023-06-01T12:54:55;32.25;36.06
66119;DHT22;52912;48.564;9.302;2023-06-01T12:57:21;33.05;35.73
66119;DHT22;52912;48.564;9.302;2023-06-01T12:59:46;33.28;36.30
66119;DHT22;52912;48.564;9.302;2023-06-01T13:02:13;32.70;37.97
66119;DHT22;52912;48.564;9.302;2023-06-01T13:04:38;33.42;36.76
66119;DHT22;52912;48.564;9.302;2023-06-01T13:07:04;32.53;37.73
66119;DHT22;52912;48.564;9.302;2023-06-01T13:09:30;32.21;35.89
66119;DHT22;52912;48.564;9.302;2023-06-01T13:11:55;32.80;36.09
66119;DHT22;52912;48.564;9.302;2023-06-01T13:14:21;33.36;35.75
66119;DHT22;52912;48.564;9.302;2023-06-01T13:16:46;32.97;37.28
66119;DHT22;52912;48.564;9.302;2023-06-01T13:19:13;33.63;37.39
66119;DHT22;52912;48.564;9.302;2023-06-01T13:21:39;33.07;38.37
66119;DHT22;52912;48.564;9.302;2023-06-01T13:24:05;33.39;37.20
66119;DHT22;52912;48.564;9.302;2023-06-01T13:26:30;33.58;37.62
66119;DHT22;52912;48.564;9.302;2023-06-01T13:28:56;33.53;36.84
66119;DHT22;52912;48.564;9.302;2023-06-01T13:31:21;33.22;37.27
66119;DHT22;52912;48.564;9.302;2023-06-01T13:33:47;33.80;35.71
66119;DHT22;52912;48.564;9.302;2023-06-01T13:36:14;33.24;36.83
66119;DHT22;52912;48.564;9.302;2023-06-01T13:38:40;33.93;36.16
66119;DHT22;52912;48.564;9.302;2023-06-01T13:41:05;32.39;36.74
66119;DHT22;52912;48.564;9.302;2023-06-01T13:43:31;33.12;36.86
66119;DHT22;52912;48.564;9.302;2023-06-01T13:45:56;33.41;36.26
66119;DHT22;52912;48.564;9.302;2023-06-01T13:48:21;33.33;36.77
66119;DHT22;52912;48.564;9.302;2023-06-01T13:50:47;33.15;36.09
66119;DHT22;52912;48.564;9.302;2023-06-01T13:53:14;33.39;36.41
66119;DHT22;52912;48.564;9.302;2023-06-01T13:55:40;33.76;36.36
66119;DHT22;52912;48.564;9.302;2023-06-01T13:58:05;33.28;37.03
66119;DHT22;52912;48.564;9.302;2023-06-01T14:00:31;31.94;37.98
66119;DHT22;52912;48.564;9.302;2023-06-01T14:02:56;33.04;36.39
66119;DHT22;52912;48.564;9.302;2023-06-01T14:05:22;32.33;36.94
66119;DHT22;52912;48.564;9.302;2023-06-01T14:07:47;32.18;36.79
66119;DHT22;52912;48.564;9.302;2023-06-01T14:10:14;32.83;35.53
66119;DHT22;52912;48.564;9.302;2023-06-01T14:12:39;32.80;37.51
66119;DHT22;52912;48.564;9.302;2023-06-01T14:15:06;33.05;38.19
66119;DHT22;52912;48.564;9.302;2023-06-01T14:17:31;32.97;37.33
66119;DHT22;52912;48.564;9.302;2023-06-01T14:19:57;33.53;37.60
66119;DHT22;52912;48.564;9.302;2023-06-01T14:22:22;32.67;37.14
66119;DHT22;52912;48.564;9.302;2023-06-01T14:24:48;32.79;37.53
66119;DHT22;52912;48.564;9.302;2023-06-01T14:27:15;32.45;37.85
66119;DHT22;52912;48.564;9.302;2023-06-01T14:29:40;32.91;38.42
66119;DHT22;52912;48.564;9.302;2023-06-01T14:32:06;33.21;38.06
66119;DHT22;52912;48.564;9.302;2023-06-01T14:34:32;33.07;38.82
66119;DHT22;52912;48.564;9.302;2023-06-01T14:36:57;32.45;38.68
66119;DHT22;52912;48.564;9.302;2023-06-01T14:39:23;32.22;39.03
66119;DHT22;52912;48.564;9.302;2023-06-01T14:41:48;32.24;39.50
66119;DHT22;52912;48.564;9.302;2023-06-01T14:44:15;32.94;39.23
66119;DHT22;52912;48.564;9.302;2023-06-01T14:46:41;32.98;38.31
66119;DHT22;52912;48.564;9.302;2023-06-01T14:49:06;33.15;39.26
66119;DHT22;52912;48.564;9.302;2023-06-01T14:51:32;32.98;38.45
66119;DHT22;52912;48.564;9.302;2023-06-01T14:53:57;32.62;39.14
66119;DHT22;52912;48.564;9.302;2023-06-01T14:56:23;32.76;39.09
66119;DHT22;52912;48.564;9.302;2023-06-01T14:58:48;32.14;39.27
66119;DHT22;52912;48.564;9.302;2023-06-01T15:01:15;32.74;39.15
66119;DHT22;52912;48.564;9.302;2023-06-01T15:03:41;32.76;39.58
66119;DHT22;52912;48.564;9.302;2023-06-01T15:06:07;32.83;39.53
66119;DHT22;52912;48.564;9.302;2023-06-01T15:08:32;32.70;38.12
66119;DHT22;52912;48.564;9.302;2023-06-01T15:10:58;32.05;38.49
66119;DHT22;52912;48.564;9.302;2023-06-01T15:13:23;32.17;39.82
66119;DHT22;52912;48.564;9.302;2023-06-01T15:15:48;31.84;38.97
66119;DHT22;52912;48.564;9.302;2023-06-01T15:18:15;31.74;39.83
66119;DHT22;52912;48.564;9.302;2023-06-01T15:20:41;31.74;39.42
66119;DHT22;52912;48.564;9.302;2023-06-01T15:23:06;31.85;39.75
66119;DHT22;52912;48.564;9.302;2023-06-01T15:25:32;31.76;39.26
66119;DHT22;52912;48.564;9.302;2023-06-01T15:27:57;31.53;39.94
66119;DHT22;52912;48.564;9.302;2023-06-01T15:30:23;31.49;40.95
66119;DHT22;52912;48.564;9.302;2023-06-01T15:32:49;31.71;40.24